NUQ weather

Moffett Federal Airfield
Mountain View, California, United States

Public forecast

Using degrees Fahrenheit for public forecast. Weather courtesy of forecast.io.

METAR (pilot weather report)

Retrieved 2019/06/18 21:56 UTC (7 minutes ago):

KNUQ 182156Z 35012KT 10SM CLR 24/16 A2993 RMK AO2 SLP136 T02440156

TAF (pilot weather forecast)

Closest forecast is Norman Y. Mineta San Jose International Airport, 6.6 nm (12.2 km) ESE. Retrieved 2019/06/18 18:42 UTC (3 hours ago):

TAF KSJC 181739Z 1818/1918 VRB03KT P6SM FEW008 FM182100 32010KT P6SM SKC FM190500 28005KT P6SM SKC FM190900 14008KT P6SM SCT010